sensor_id;sensor_type;location;lat;lon;timestamp;P1;durP1;ratioP1;P2;durP2;ratioP2
79710;SDS011;69465;51.630;6.570;2023-05-27T00:00:39;19.77;;;6.53;;
79710;SDS011;69465;51.630;6.570;2023-05-27T00:03:06;19.57;;;6.67;;
79710;SDS011;69465;51.630;6.570;2023-05-27T00:05:33;17.30;;;7.10;;
79710;SDS011;69465;51.630;6.570;2023-05-27T00:07:59;20.40;;;7.43;;
79710;SDS011;69465;51.630;6.570;2023-05-27T00:10:26;16.47;;;7.10;;
79710;SDS011;69465;51.630;6.570;2023-05-27T00:12:52;17.47;;;7.57;;
79710;SDS011;69465;51.630;6.570;2023-05-27T00:15:19;17.77;;;6.80;;
79710;SDS011;69465;51.630;6.570;2023-05-27T00:17:46;14.30;;;6.53;;
79710;SDS011;69465;51.630;6.570;2023-05-27T00:20:13;16.83;;;6.77;;
79710;SDS011;69465;51.630;6.570;2023-05-27T00:22:39;17.40;;;6.93;;
79710;SDS011;69465;51.630;6.570;2023-05-27T00:25:06;17.27;;;6.63;;
79710;SDS011;69465;51.630;6.570;2023-05-27T00:27:33;16.80;;;6.97;;
79710;SDS011;69465;51.630;6.570;2023-05-27T00:29:59;17.40;;;6.50;;
79710;SDS011;69465;51.630;6.570;2023-05-27T00:32:26;15.20;;;6.83;;
79710;SDS011;69465;51.630;6.570;2023-05-27T00:34:53;12.63;;;7.17;;
79710;SDS011;69465;51.630;6.570;2023-05-27T00:37:19;18.90;;;7.03;;
79710;SDS011;69465;51.630;6.570;2023-05-27T00:39:46;18.93;;;7.40;;
79710;SDS011;69465;51.630;6.570;2023-05-27T00:42:13;18.03;;;7.13;;
79710;SDS011;69465;51.630;6.570;2023-05-27T00:44:39;19.07;;;7.20;;
79710;SDS011;69465;51.630;6.570;2023-05-27T00:47:06;18.57;;;7.20;;
79710;SDS011;69465;51.630;6.570;2023-05-27T00:49:33;20.23;;;6.40;;
79710;SDS011;69465;51.630;6.570;2023-05-27T00:51:59;17.87;;;6.60;;
79710;SDS011;69465;51.630;6.570;2023-05-27T00:54:27;18.20;;;6.83;;
79710;SDS011;69465;51.630;6.570;2023-05-27T00:56:54;18.00;;;6.63;;
79710;SDS011;69465;51.630;6.570;2023-05-27T00:59:21;16.53;;;6.50;;
79710;SDS011;69465;51.630;6.570;2023-05-27T01:01:48;18.20;;;7.10;;
79710;SDS011;69465;51.630;6.570;2023-05-27T01:04:15;20.60;;;7.40;;
79710;SDS011;69465;51.630;6.570;2023-05-27T01:06:58;20.57;;;6.63;;
79710;SDS011;69465;51.630;6.570;2023-05-27T01:09:49;19.57;;;7.37;;
79710;SDS011;69465;51.630;6.570;2023-05-27T01:15:26;21.50;;;7.17;;
79710;SDS011;69465;51.630;6.570;2023-05-27T01:17:57;16.87;;;6.90;;
79710;SDS011;69465;51.630;6.570;2023-05-27T01:20:26;16.43;;;6.93;;
79710;SDS011;69465;51.630;6.570;2023-05-27T01:22:54;20.27;;;8.03;;
79710;SDS011;69465;51.630;6.570;2023-05-27T01:25:22;15.97;;;8.83;;
79710;SDS011;69465;51.630;6.570;2023-05-27T01:27:49;16.60;;;6.93;;
79710;SDS011;69465;51.630;6.570;2023-05-27T01:30:16;18.27;;;7.40;;
79710;SDS011;69465;51.630;6.570;2023-05-27T01:32:48;16.73;;;6.83;;
79710;SDS011;69465;51.630;6.570;2023-05-27T01:35:22;19.57;;;6.40;;
79710;SDS011;69465;51.630;6.570;2023-05-27T01:38:10;13.40;;;6.37;;
79710;SDS011;69465;51.630;6.570;2023-05-27T01:40:40;17.90;;;6.80;;
79710;SDS011;69465;51.630;6.570;2023-05-27T01:43:08;13.97;;;6.47;;
79710;SDS011;69465;51.630;6.570;2023-05-27T01:45:35;16.53;;;6.73;;
79710;SDS011;69465;51.630;6.570;2023-05-27T01:48:03;14.57;;;6.70;;
79710;SDS011;69465;51.630;6.570;2023-05-27T01:50:30;16.50;;;6.90;;
79710;SDS011;69465;51.630;6.570;2023-05-27T01:52:57;14.43;;;6.10;;
79710;SDS011;69465;51.630;6.570;2023-05-27T01:55:24;20.87;;;6.77;;
79710;SDS011;69465;51.630;6.570;2023-05-27T01:57:50;20.73;;;6.73;;
79710;SDS011;69465;51.630;6.570;2023-05-27T02:00:17;16.80;;;6.73;;
79710;SDS011;69465;51.630;6.570;2023-05-27T02:02:44;15.37;;;6.43;;
79710;SDS011;69465;51.630;6.570;2023-05-27T02:05:10;23.00;;;8.37;;
79710;SDS011;69465;51.630;6.570;2023-05-27T02:07:37;17.17;;;7.00;;
79710;SDS011;69465;51.630;6.570;2023-05-27T02:10:03;19.40;;;6.73;;
79710;SDS011;69465;51.630;6.570;2023-05-27T02:12:30;20.30;;;6.73;;
79710;SDS011;69465;51.630;6.570;2023-05-27T02:14:57;19.13;;;7.23;;
79710;SDS011;69465;51.630;6.570;2023-05-27T02:17:23;17.47;;;6.93;;
79710;SDS011;69465;51.630;6.570;2023-05-27T02:19:51;21.47;;;7.33;;
79710;SDS011;69465;51.630;6.570;2023-05-27T02:22:17;20.27;;;7.30;;
79710;SDS011;69465;51.630;6.570;2023-05-27T02:24:44;21.40;;;7.17;;
79710;SDS011;69465;51.630;6.570;2023-05-27T02:27:10;17.77;;;7.40;;
79710;SDS011;69465;51.630;6.570;2023-05-27T02:29:37;15.37;;;6.57;;
79710;SDS011;69465;51.630;6.570;2023-05-27T02:32:04;16.77;;;8.20;;
79710;SDS011;69465;51.630;6.570;2023-05-27T02:34:31;17.67;;;7.30;;
79710;SDS011;69465;51.630;6.570;2023-05-27T02:36:58;16.97;;;6.70;;
79710;SDS011;69465;51.630;6.570;2023-05-27T02:39:24;19.87;;;7.43;;
79710;SDS011;69465;51.630;6.570;2023-05-27T02:41:51;16.30;;;6.63;;
79710;SDS011;69465;51.630;6.570;2023-05-27T02:44:17;16.87;;;6.50;;
79710;SDS011;69465;51.630;6.570;2023-05-27T02:46:44;20.73;;;7.47;;
79710;SDS011;69465;51.630;6.570;2023-05-27T02:49:11;19.00;;;7.37;;
79710;SDS011;69465;51.630;6.570;2023-05-27T02:51:37;18.70;;;8.33;;
79710;SDS011;69465;51.630;6.570;2023-05-27T02:54:05;16.53;;;7.30;;
79710;SDS011;69465;51.630;6.570;2023-05-27T02:56:31;17.13;;;7.30;;
79710;SDS011;69465;51.630;6.570;2023-05-27T02:58:58;21.97;;;7.60;;
79710;SDS011;69465;51.630;6.570;2023-05-27T03:01:25;19.93;;;7.87;;
79710;SDS011;69465;51.630;6.570;2023-05-27T03:03:52;22.47;;;8.10;;
79710;SDS011;69465;51.630;6.570;2023-05-27T03:06:18;18.57;;;7.47;;
79710;SDS011;69465;51.630;6.570;2023-05-27T03:08:45;18.23;;;7.97;;
79710;SDS011;69465;51.630;6.570;2023-05-27T03:11:12;15.07;;;7.70;;
79710;SDS011;69465;51.630;6.570;2023-05-27T03:13:39;19.30;;;7.70;;
79710;SDS011;69465;51.630;6.570;2023-05-27T03:16:06;14.97;;;7.37;;
79710;SDS011;69465;51.630;6.570;2023-05-27T03:18:33;15.37;;;7.80;;
79710;SDS011;69465;51.630;6.570;2023-05-27T03:20:59;19.00;;;7.30;;
79710;SDS011;69465;51.630;6.570;2023-05-27T03:23:26;18.60;;;7.67;;
79710;SDS011;69465;51.630;6.570;2023-05-27T03:25:53;14.57;;;7.03;;
79710;SDS011;69465;51.630;6.570;2023-05-27T03:28:20;18.83;;;8.10;;
79710;SDS011;69465;51.630;6.570;2023-05-27T03:30:46;18.73;;;7.13;;
79710;SDS011;69465;51.630;6.570;2023-05-27T03:33:13;17.57;;;7.50;;
79710;SDS011;69465;51.630;6.570;2023-05-27T03:35:40;18.23;;;8.00;;
79710;SDS011;69465;51.630;6.570;2023-05-27T03:38:06;19.63;;;7.23;;
79710;SDS011;69465;51.630;6.570;2023-05-27T03:40:33;19.10;;;7.77;;
79710;SDS011;69465;51.630;6.570;2023-05-27T03:43:00;23.33;;;7.80;;
79710;SDS011;69465;51.630;6.570;2023-05-27T03:45:27;18.53;;;7.60;;
79710;SDS011;69465;51.630;6.570;2023-05-27T03:47:53;18.50;;;7.57;;
79710;SDS011;69465;51.630;6.570;2023-05-27T03:50:20;22.47;;;7.33;;
79710;SDS011;69465;51.630;6.570;2023-05-27T03:52:47;13.93;;;6.53;;
79710;SDS011;69465;51.630;6.570;2023-05-27T03:55:14;17.93;;;8.00;;
79710;SDS011;69465;51.630;6.570;2023-05-27T03:57:42;21.13;;;7.47;;
79710;SDS011;69465;51.630;6.570;2023-05-27T04:00:09;21.13;;;7.90;;
79710;SDS011;69465;51.630;6.570;2023-05-27T04:02:36;20.97;;;7.10;;
79710;SDS011;69465;51.630;6.570;2023-05-27T04:05:03;14.70;;;6.87;;
79710;SDS011;69465;51.630;6.570;2023-05-27T04:07:30;23.20;;;8.27;;
79710;SDS011;69465;51.630;6.570;2023-05-27T04:09:57;21.13;;;7.50;;
79710;SDS011;69465;51.630;6.570;2023-05-27T04:12:24;14.20;;;7.17;;
79710;SDS011;69465;51.630;6.570;2023-05-27T04:14:51;16.97;;;8.60;;
79710;SDS011;69465;51.630;6.570;2023-05-27T04:17:17;14.57;;;7.03;;
79710;SDS011;69465;51.630;6.570;2023-05-27T04:19:44;17.67;;;8.23;;
79710;SDS011;69465;51.630;6.570;2023-05-27T04:22:10;20.00;;;7.27;;
79710;SDS011;69465;51.630;6.570;2023-05-27T04:24:37;16.73;;;6.67;;
79710;SDS011;69465;51.630;6.570;2023-05-27T04:27:04;17.63;;;6.83;;
79710;SDS011;69465;51.630;6.570;2023-05-27T04:29:31;17.80;;;7.30;;
79710;SDS011;69465;51.630;6.570;2023-05-27T04:31:57;16.13;;;7.00;;
79710;SDS011;69465;51.630;6.570;2023-05-27T04:34:24;15.27;;;6.87;;
79710;SDS011;69465;51.630;6.570;2023-05-27T04:36:51;19.30;;;6.80;;
79710;SDS011;69465;51.630;6.570;2023-05-27T04:39:17;21.70;;;7.30;;
79710;SDS011;69465;51.630;6.570;2023-05-27T04:41:45;14.13;;;6.83;;
79710;SDS011;69465;51.630;6.570;2023-05-27T04:44:12;16.53;;;7.23;;
79710;SDS011;69465;51.630;6.570;2023-05-27T04:46:39;18.00;;;8.27;;
79710;SDS011;69465;51.630;6.570;2023-05-27T04:49:06;18.43;;;6.67;;
79710;SDS011;69465;51.630;6.570;2023-05-27T04:51:33;13.80;;;6.37;;
79710;SDS011;69465;51.630;6.570;2023-05-27T04:53:59;15.03;;;6.47;;
79710;SDS011;69465;51.630;6.570;2023-05-27T04:56:26;19.23;;;6.47;;
79710;SDS011;69465;51.630;6.570;2023-05-27T04:58:53;21.90;;;7.23;;
79710;SDS011;69465;51.630;6.570;2023-05-27T05:01:20;18.90;;;7.20;;
79710;SDS011;69465;51.630;6.570;2023-05-27T05:03:47;18.27;;;6.60;;
79710;SDS011;69465;51.630;6.570;2023-05-27T05:06:13;14.43;;;5.87;;
79710;SDS011;69465;51.630;6.570;2023-05-27T05:08:40;10.63;;;5.53;;
79710;SDS011;69465;51.630;6.570;2023-05-27T05:11:07;11.77;;;5.57;;
79710;SDS011;69465;51.630;6.570;2023-05-27T05:13:34;12.70;;;5.57;;
79710;SDS011;69465;51.630;6.570;2023-05-27T05:16:01;13.20;;;5.67;;
79710;SDS011;69465;51.630;6.570;2023-05-27T05:18:27;13.33;;;4.90;;
79710;SDS011;69465;51.630;6.570;2023-05-27T05:20:54;13.30;;;5.83;;
79710;SDS011;69465;51.630;6.570;2023-05-27T05:23:21;15.67;;;5.07;;
79710;SDS011;69465;51.630;6.570;2023-05-27T05:25:48;16.50;;;5.97;;
79710;SDS011;69465;51.630;6.570;2023-05-27T05:28:14;12.13;;;4.70;;
79710;SDS011;69465;51.630;6.570;2023-05-27T05:30:41;11.53;;;5.03;;
79710;SDS011;69465;51.630;6.570;2023-05-27T05:33:08;14.17;;;5.57;;
79710;SDS011;69465;51.630;6.570;2023-05-27T05:35:35;12.97;;;4.70;;
79710;SDS011;69465;51.630;6.570;2023-05-27T05:38:01;16.77;;;5.30;;
79710;SDS011;69465;51.630;6.570;2023-05-27T05:40:28;15.27;;;5.90;;
79710;SDS011;69465;51.630;6.570;2023-05-27T05:42:55;8.83;;;5.03;;
79710;SDS011;69465;51.630;6.570;2023-05-27T05:45:21;11.57;;;4.73;;
79710;SDS011;69465;51.630;6.570;2023-05-27T05:47:48;13.20;;;4.90;;
79710;SDS011;69465;51.630;6.570;2023-05-27T05:50:16;11.63;;;4.73;;
79710;SDS011;69465;51.630;6.570;2023-05-27T05:52:45;11.47;;;5.07;;
79710;SDS011;69465;51.630;6.570;2023-05-27T05:55:12;14.53;;;5.27;;
79710;SDS011;69465;51.630;6.570;2023-05-27T05:57:38;12.07;;;5.37;;
79710;SDS011;69465;51.630;6.570;2023-05-27T06:00:05;14.83;;;5.63;;
79710;SDS011;69465;51.630;6.570;2023-05-27T06:02:32;12.17;;;5.87;;
79710;SDS011;69465;51.630;6.570;2023-05-27T06:04:59;12.87;;;5.20;;
79710;SDS011;69465;51.630;6.570;2023-05-27T06:07:26;13.60;;;5.33;;
79710;SDS011;69465;51.630;6.570;2023-05-27T06:09:56;12.60;;;5.20;;
79710;SDS011;69465;51.630;6.570;2023-05-27T06:12:23;13.57;;;5.50;;
79710;SDS011;69465;51.630;6.570;2023-05-27T06:14:52;14.27;;;4.83;;
79710;SDS011;69465;51.630;6.570;2023-05-27T06:17:19;10.17;;;5.40;;
79710;SDS011;69465;51.630;6.570;2023-05-27T06:19:45;13.50;;;5.40;;
79710;SDS011;69465;51.630;6.570;2023-05-27T06:22:12;13.87;;;5.57;;
79710;SDS011;69465;51.630;6.570;2023-05-27T06:24:39;12.53;;;5.10;;
79710;SDS011;69465;51.630;6.570;2023-05-27T06:27:06;14.47;;;5.63;;
79710;SDS011;69465;51.630;6.570;2023-05-27T06:29:32;11.27;;;4.77;;
79710;SDS011;69465;51.630;6.570;2023-05-27T06:31:59;20.27;;;6.10;;
79710;SDS011;69465;51.630;6.570;2023-05-27T06:34:26;12.53;;;5.20;;
79710;SDS011;69465;51.630;6.570;2023-05-27T06:36:53;12.87;;;5.77;;
79710;SDS011;69465;51.630;6.570;2023-05-27T06:39:20;14.77;;;5.30;;
79710;SDS011;69465;51.630;6.570;2023-05-27T06:41:46;12.87;;;5.70;;
79710;SDS011;69465;51.630;6.570;2023-05-27T06:44:13;14.33;;;5.53;;
79710;SDS011;69465;51.630;6.570;2023-05-27T06:46:40;14.67;;;5.53;;
79710;SDS011;69465;51.630;6.570;2023-05-27T06:49:07;14.30;;;5.83;;
79710;SDS011;69465;51.630;6.570;2023-05-27T06:51:33;12.73;;;5.33;;
79710;SDS011;69465;51.630;6.570;2023-05-27T06:54:00;14.00;;;5.63;;
79710;SDS011;69465;51.630;6.570;2023-05-27T06:56:27;13.90;;;5.30;;
79710;SDS011;69465;51.630;6.570;2023-05-27T06:58:54;16.57;;;6.07;;
79710;SDS011;69465;51.630;6.570;2023-05-27T07:01:20;10.83;;;5.43;;
79710;SDS011;69465;51.630;6.570;2023-05-27T07:03:47;11.30;;;5.30;;
79710;SDS011;69465;51.630;6.570;2023-05-27T07:06:14;16.43;;;6.03;;
79710;SDS011;69465;51.630;6.570;2023-05-27T07:08:41;12.57;;;4.83;;
79710;SDS011;69465;51.630;6.570;2023-05-27T07:11:07;13.60;;;5.63;;
79710;SDS011;69465;51.630;6.570;2023-05-27T07:13:34;14.03;;;5.27;;
79710;SDS011;69465;51.630;6.570;2023-05-27T07:16:00;14.70;;;5.50;;
79710;SDS011;69465;51.630;6.570;2023-05-27T07:18:28;16.53;;;6.30;;
79710;SDS011;69465;51.630;6.570;2023-05-27T07:20:55;13.07;;;5.40;;
79710;SDS011;69465;51.630;6.570;2023-05-27T07:23:21;11.87;;;5.03;;
79710;SDS011;69465;51.630;6.570;2023-05-27T07:25:48;11.57;;;5.30;;
79710;SDS011;69465;51.630;6.570;2023-05-27T07:28:16;13.97;;;5.23;;
79710;SDS011;69465;51.630;6.570;2023-05-27T07:30:42;13.27;;;5.30;;
79710;SDS011;69465;51.630;6.570;2023-05-27T07:33:10;13.43;;;5.80;;
79710;SDS011;69465;51.630;6.570;2023-05-27T07:35:36;15.07;;;5.87;;
79710;SDS011;69465;51.630;6.570;2023-05-27T07:38:03;15.97;;;6.23;;
79710;SDS011;69465;51.630;6.570;2023-05-27T07:40:30;12.97;;;5.73;;
79710;SDS011;69465;51.630;6.570;2023-05-27T07:42:57;14.67;;;5.90;;
79710;SDS011;69465;51.630;6.570;2023-05-27T07:45:23;12.23;;;5.10;;
79710;SDS011;69465;51.630;6.570;2023-05-27T07:47:50;13.67;;;5.70;;
79710;SDS011;69465;51.630;6.570;2023-05-27T07:50:17;13.30;;;5.67;;
79710;SDS011;69465;51.630;6.570;2023-05-27T07:52:44;13.70;;;5.73;;
79710;SDS011;69465;51.630;6.570;2023-05-27T07:55:10;14.97;;;5.87;;
79710;SDS011;69465;51.630;6.570;2023-05-27T07:57:37;12.37;;;5.17;;
79710;SDS011;69465;51.630;6.570;2023-05-27T08:00:04;13.47;;;4.90;;
79710;SDS011;69465;51.630;6.570;2023-05-27T08:02:31;13.13;;;5.10;;
79710;SDS011;69465;51.630;6.570;2023-05-27T08:04:58;11.07;;;5.53;;
79710;SDS011;69465;51.630;6.570;2023-05-27T08:07:25;11.97;;;5.47;;
79710;SDS011;69465;51.630;6.570;2023-05-27T08:09:52;12.80;;;5.30;;
79710;SDS011;69465;51.630;6.570;2023-05-27T08:12:19;13.33;;;5.53;;
79710;SDS011;69465;51.630;6.570;2023-05-27T08:14:45;12.37;;;5.77;;
79710;SDS011;69465;51.630;6.570;2023-05-27T08:17:12;16.33;;;6.40;;
79710;SDS011;69465;51.630;6.570;2023-05-27T08:19:39;14.63;;;5.43;;
79710;SDS011;69465;51.630;6.570;2023-05-27T08:22:06;11.60;;;5.67;;
79710;SDS011;69465;51.630;6.570;2023-05-27T08:24:33;13.30;;;5.90;;
79710;SDS011;69465;51.630;6.570;2023-05-27T08:27:00;12.20;;;5.70;;
79710;SDS011;69465;51.630;6.570;2023-05-27T08:29:27;10.67;;;5.73;;
79710;SDS011;69465;51.630;6.570;2023-05-27T08:31:53;13.67;;;6.20;;
79710;SDS011;69465;51.630;6.570;2023-05-27T08:34:20;13.97;;;5.93;;
79710;SDS011;69465;51.630;6.570;2023-05-27T08:36:47;12.73;;;6.10;;
79710;SDS011;69465;51.630;6.570;2023-05-27T08:39:14;14.00;;;5.73;;
79710;SDS011;69465;51.630;6.570;2023-05-27T08:41:40;13.43;;;5.33;;
79710;SDS011;69465;51.630;6.570;2023-05-27T08:44:08;13.00;;;5.27;;
79710;SDS011;69465;51.630;6.570;2023-05-27T08:46:38;11.43;;;4.80;;
79710;SDS011;69465;51.630;6.570;2023-05-27T08:49:06;10.47;;;5.13;;
79710;SDS011;69465;51.630;6.570;2023-05-27T08:51:33;12.73;;;5.60;;
79710;SDS011;69465;51.630;6.570;2023-05-27T08:54:03;13.83;;;5.37;;
79710;SDS011;69465;51.630;6.570;2023-05-27T08:56:30;13.43;;;5.37;;
79710;SDS011;69465;51.630;6.570;2023-05-27T08:58:59;13.33;;;6.00;;
79710;SDS011;69465;51.630;6.570;2023-05-27T09:01:26;10.93;;;5.30;;
79710;SDS011;69465;51.630;6.570;2023-05-27T09:03:54;12.57;;;5.67;;
79710;SDS011;69465;51.630;6.570;2023-05-27T09:06:21;12.43;;;5.33;;
79710;SDS011;69465;51.630;6.570;2023-05-27T09:08:48;12.37;;;6.00;;
79710;SDS011;69465;51.630;6.570;2023-05-27T09:11:20;9.20;;;5.10;;
79710;SDS011;69465;51.630;6.570;2023-05-27T09:13:55;14.10;;;5.40;;
79710;SDS011;69465;51.630;6.570;2023-05-27T09:16:21;12.53;;;5.37;;
79710;SDS011;69465;51.630;6.570;2023-05-27T09:18:49;11.00;;;4.83;;
79710;SDS011;69465;51.630;6.570;2023-05-27T09:21:16;12.17;;;5.20;;
79710;SDS011;69465;51.630;6.570;2023-05-27T09:23:43;10.27;;;5.33;;
79710;SDS011;69465;51.630;6.570;2023-05-27T09:26:11;11.67;;;5.43;;
79710;SDS011;69465;51.630;6.570;2023-05-27T09:28:38;12.90;;;5.90;;
79710;SDS011;69465;51.630;6.570;2023-05-27T09:31:06;13.63;;;5.33;;
79710;SDS011;69465;51.630;6.570;2023-05-27T09:33:34;13.37;;;4.90;;
79710;SDS011;69465;51.630;6.570;2023-05-27T09:36:03;16.20;;;5.37;;
79710;SDS011;69465;51.630;6.570;2023-05-27T09:38:31;12.87;;;5.00;;
79710;SDS011;69465;51.630;6.570;2023-05-27T09:40:59;14.77;;;4.90;;
79710;SDS011;69465;51.630;6.570;2023-05-27T09:43:27;12.47;;;4.63;;
79710;SDS011;69465;51.630;6.570;2023-05-27T09:46:00;10.93;;;5.20;;
79710;SDS011;69465;51.630;6.570;2023-05-27T09:48:30;11.13;;;5.00;;
79710;SDS011;69465;51.630;6.570;2023-05-27T09:50:58;13.13;;;5.17;;
79710;SDS011;69465;51.630;6.570;2023-05-27T09:53:26;12.63;;;4.93;;
79710;SDS011;69465;51.630;6.570;2023-05-27T09:55:54;14.23;;;5.43;;
79710;SDS011;69465;51.630;6.570;2023-05-27T09:58:21;12.27;;;5.10;;
79710;SDS011;69465;51.630;6.570;2023-05-27T10:00:49;12.37;;;5.33;;
79710;SDS011;69465;51.630;6.570;2023-05-27T10:03:21;12.37;;;5.00;;
79710;SDS011;69465;51.630;6.570;2023-05-27T10:05:48;13.03;;;5.03;;
79710;SDS011;69465;51.630;6.570;2023-05-27T10:08:16;13.70;;;4.77;;
79710;SDS011;69465;51.630;6.570;2023-05-27T10:10:52;13.30;;;5.00;;
79710;SDS011;69465;51.630;6.570;2023-05-27T10:13:20;11.67;;;4.93;;
79710;SDS011;69465;51.630;6.570;2023-05-27T10:15:51;10.13;;;3.97;;
79710;SDS011;69465;51.630;6.570;2023-05-27T10:18:22;13.27;;;4.97;;
79710;SDS011;69465;51.630;6.570;2023-05-27T10:20:51;10.20;;;3.87;;
79710;SDS011;69465;51.630;6.570;2023-05-27T10:23:19;9.73;;;4.50;;
79710;SDS011;69465;51.630;6.570;2023-05-27T10:26:06;11.23;;;4.70;;
79710;SDS011;69465;51.630;6.570;2023-05-27T10:28:35;12.17;;;4.40;;
79710;SDS011;69465;51.630;6.570;2023-05-27T10:31:13;10.87;;;4.90;;
79710;SDS011;69465;51.630;6.570;2023-05-27T10:33:42;9.83;;;4.00;;
79710;SDS011;69465;51.630;6.570;2023-05-27T10:36:16;11.27;;;4.80;;
79710;SDS011;69465;51.630;6.570;2023-05-27T10:38:58;9.47;;;3.90;;
79710;SDS011;69465;51.630;6.570;2023-05-27T10:41:27;8.10;;;4.23;;
79710;SDS011;69465;51.630;6.570;2023-05-27T10:43:57;11.23;;;4.43;;
79710;SDS011;69465;51.630;6.570;2023-05-27T10:46:24;9.17;;;4.50;;
79710;SDS011;69465;51.630;6.570;2023-05-27T10:48:52;10.20;;;4.70;;
79710;SDS011;69465;51.630;6.570;2023-05-27T10:51:19;11.03;;;4.60;;
79710;SDS011;69465;51.630;6.570;2023-05-27T10:53:46;12.80;;;4.80;;
79710;SDS011;69465;51.630;6.570;2023-05-27T10:56:19;8.63;;;4.37;;
79710;SDS011;69465;51.630;6.570;2023-05-27T10:58:47;9.80;;;4.40;;
79710;SDS011;69465;51.630;6.570;2023-05-27T11:01:15;12.40;;;4.30;;
79710;SDS011;69465;51.630;6.570;2023-05-27T11:03:44;9.47;;;4.43;;
79710;SDS011;69465;51.630;6.570;2023-05-27T11:06:12;11.30;;;4.90;;
79710;SDS011;69465;51.630;6.570;2023-05-27T11:08:39;10.63;;;4.80;;
79710;SDS011;69465;51.630;6.570;2023-05-27T11:11:07;10.43;;;4.37;;
79710;SDS011;69465;51.630;6.570;2023-05-27T11:13:45;9.97;;;4.40;;
79710;SDS011;69465;51.630;6.570;2023-05-27T11:16:14;9.80;;;4.70;;
79710;SDS011;69465;51.630;6.570;2023-05-27T11:18:44;9.17;;;4.20;;
79710;SDS011;69465;51.630;6.570;2023-05-27T11:21:12;11.67;;;4.43;;
79710;SDS011;69465;51.630;6.570;2023-05-27T11:23:41;10.87;;;4.53;;
79710;SDS011;69465;51.630;6.570;2023-05-27T11:28:50;9.43;;;4.53;;
79710;SDS011;69465;51.630;6.570;2023-05-27T11:31:20;8.33;;;4.50;;
79710;SDS011;69465;51.630;6.570;2023-05-27T11:33:52;9.67;;;4.40;;
79710;SDS011;69465;51.630;6.570;2023-05-27T11:36:19;7.93;;;4.30;;
79710;SDS011;69465;51.630;6.570;2023-05-27T11:38:53;9.13;;;4.43;;
79710;SDS011;69465;51.630;6.570;2023-05-27T11:41:25;11.40;;;4.83;;
79710;SDS011;69465;51.630;6.570;2023-05-27T11:46:33;11.57;;;4.50;;
79710;SDS011;69465;51.630;6.570;2023-05-27T11:49:01;8.90;;;4.57;;
79710;SDS011;69465;51.630;6.570;2023-05-27T11:51:30;9.90;;;4.77;;
79710;SDS011;69465;51.630;6.570;2023-05-27T11:53:58;13.40;;;4.63;;
79710;SDS011;69465;51.630;6.570;2023-05-27T11:56:25;11.77;;;4.47;;
79710;SDS011;69465;51.630;6.570;2023-05-27T11:58:52;12.90;;;4.87;;
79710;SDS011;69465;51.630;6.570;2023-05-27T12:01:19;9.37;;;5.07;;
79710;SDS011;69465;51.630;6.570;2023-05-27T12:03:46;11.03;;;5.07;;
79710;SDS011;69465;51.630;6.570;2023-05-27T12:06:12;12.70;;;4.80;;
79710;SDS011;69465;51.630;6.570;2023-05-27T12:08:40;11.37;;;4.57;;
79710;SDS011;69465;51.630;6.570;2023-05-27T12:11:07;9.90;;;5.00;;
79710;SDS011;69465;51.630;6.570;2023-05-27T12:13:35;11.70;;;5.17;;
79710;SDS011;69465;51.630;6.570;2023-05-27T12:16:01;10.13;;;4.10;;
79710;SDS011;69465;51.630;6.570;2023-05-27T12:18:28;9.97;;;4.97;;
79710;SDS011;69465;51.630;6.570;2023-05-27T12:20:56;10.13;;;4.83;;
79710;SDS011;69465;51.630;6.570;2023-05-27T12:23:22;11.77;;;4.70;;
79710;SDS011;69465;51.630;6.570;2023-05-27T12:25:49;13.57;;;4.80;;
79710;SDS011;69465;51.630;6.570;2023-05-27T12:28:16;13.50;;;4.83;;
79710;SDS011;69465;51.630;6.570;2023-05-27T12:30:43;12.47;;;5.23;;
79710;SDS011;69465;51.630;6.570;2023-05-27T12:33:10;13.90;;;5.47;;
79710;SDS011;69465;51.630;6.570;2023-05-27T12:35:37;8.33;;;4.37;;
79710;SDS011;69465;51.630;6.570;2023-05-27T12:38:04;11.17;;;4.57;;
79710;SDS011;69465;51.630;6.570;2023-05-27T12:40:31;8.23;;;4.43;;
79710;SDS011;69465;51.630;6.570;2023-05-27T12:42:57;10.47;;;4.90;;
79710;SDS011;69465;51.630;6.570;2023-05-27T12:45:24;9.47;;;4.60;;
79710;SDS011;69465;51.630;6.570;2023-05-27T12:47:52;14.30;;;5.00;;
79710;SDS011;69465;51.630;6.570;2023-05-27T12:50:18;11.73;;;4.67;;
79710;SDS011;69465;51.630;6.570;2023-05-27T12:52:46;8.57;;;4.30;;
79710;SDS011;69465;51.630;6.570;2023-05-27T12:55:14;8.80;;;4.00;;
79710;SDS011;69465;51.630;6.570;2023-05-27T12:57:41;10.67;;;4.50;;
79710;SDS011;69465;51.630;6.570;2023-05-27T13:00:07;7.03;;;3.97;;
79710;SDS011;69465;51.630;6.570;2023-05-27T13:02:35;10.33;;;4.43;;
79710;SDS011;69465;51.630;6.570;2023-05-27T13:05:02;7.03;;;3.80;;
79710;SDS011;69465;51.630;6.570;2023-05-27T13:07:29;10.90;;;4.30;;
79710;SDS011;69465;51.630;6.570;2023-05-27T13:09:56;7.17;;;3.90;;
79710;SDS011;69465;51.630;6.570;2023-05-27T13:12:22;11.00;;;5.03;;
79710;SDS011;69465;51.630;6.570;2023-05-27T13:14:49;8.33;;;4.20;;
79710;SDS011;69465;51.630;6.570;2023-05-27T13:17:16;11.00;;;5.37;;
79710;SDS011;69465;51.630;6.570;2023-05-27T13:19:43;9.57;;;4.80;;
79710;SDS011;69465;51.630;6.570;2023-05-27T13:22:09;10.43;;;4.70;;
79710;SDS011;69465;51.630;6.570;2023-05-27T13:24:36;12.30;;;4.87;;
79710;SDS011;69465;51.630;6.570;2023-05-27T13:27:03;8.67;;;4.80;;
79710;SDS011;69465;51.630;6.570;2023-05-27T13:29:30;10.37;;;4.07;;
79710;SDS011;69465;51.630;6.570;2023-05-27T13:31:56;7.77;;;4.30;;
79710;SDS011;69465;51.630;6.570;2023-05-27T13:34:23;10.70;;;4.57;;
79710;SDS011;69465;51.630;6.570;2023-05-27T13:36:50;10.77;;;5.00;;
79710;SDS011;69465;51.630;6.570;2023-05-27T13:39:16;9.27;;;4.53;;
79710;SDS011;69465;51.630;6.570;2023-05-27T13:41:43;9.30;;;4.60;;
79710;SDS011;69465;51.630;6.570;2023-05-27T13:44:10;10.83;;;4.83;;
79710;SDS011;69465;51.630;6.570;2023-05-27T13:46:37;8.07;;;4.80;;
79710;SDS011;69465;51.630;6.570;2023-05-27T13:49:05;11.00;;;4.83;;
79710;SDS011;69465;51.630;6.570;2023-05-27T13:51:32;10.37;;;4.73;;
79710;SDS011;69465;51.630;6.570;2023-05-27T13:53:59;9.70;;;4.07;;
79710;SDS011;69465;51.630;6.570;2023-05-27T13:56:25;11.00;;;4.63;;
79710;SDS011;69465;51.630;6.570;2023-05-27T13:58:52;9.33;;;4.70;;
79710;SDS011;69465;51.630;6.570;2023-05-27T14:01:19;10.13;;;4.53;;
79710;SDS011;69465;51.630;6.570;2023-05-27T14:03:45;9.67;;;5.00;;
79710;SDS011;69465;51.630;6.570;2023-05-27T14:06:12;9.83;;;4.83;;
79710;SDS011;69465;51.630;6.570;2023-05-27T14:08:39;12.30;;;4.83;;
79710;SDS011;69465;51.630;6.570;2023-05-27T14:11:06;6.67;;;4.03;;
79710;SDS011;69465;51.630;6.570;2023-05-27T14:13:32;10.00;;;4.70;;
79710;SDS011;69465;51.630;6.570;2023-05-27T14:15:59;11.77;;;4.70;;
79710;SDS011;69465;51.630;6.570;2023-05-27T14:18:26;9.13;;;4.47;;
79710;SDS011;69465;51.630;6.570;2023-05-27T14:20:52;10.03;;;4.80;;
79710;SDS011;69465;51.630;6.570;2023-05-27T14:23:19;10.03;;;4.87;;
79710;SDS011;69465;51.630;6.570;2023-05-27T14:25:46;9.80;;;4.63;;
79710;SDS011;69465;51.630;6.570;2023-05-27T14:28:13;9.63;;;4.50;;
79710;SDS011;69465;51.630;6.570;2023-05-27T14:30:39;8.97;;;4.63;;
79710;SDS011;69465;51.630;6.570;2023-05-27T14:33:06;11.40;;;4.67;;
79710;SDS011;69465;51.630;6.570;2023-05-27T14:35:35;10.60;;;4.87;;
79710;SDS011;69465;51.630;6.570;2023-05-27T14:38:03;8.87;;;4.10;;
79710;SDS011;69465;51.630;6.570;2023-05-27T14:40:30;9.20;;;4.60;;
79710;SDS011;69465;51.630;6.570;2023-05-27T14:42:57;8.07;;;4.40;;
79710;SDS011;69465;51.630;6.570;2023-05-27T14:45:24;7.73;;;4.53;;